createdAt,value
2019-05-17T00:00:58.577Z,488.86
2019-05-17T00:01:58.589Z,489.81
2019-05-17T00:02:58.590Z,491.66
2019-05-17T00:03:58.581Z,490.68
2019-05-17T00:04:58.544Z,490.21
2019-05-17T00:05:58.527Z,494.16
2019-05-17T00:06:58.515Z,490.80
2019-05-17T00:07:58.519Z,492.79
2019-05-17T00:08:58.502Z,491.39
2019-05-17T00:09:58.478Z,489.06
2019-05-17T00:10:58.469Z,489.65
2019-05-17T00:11:58.460Z,490.31
2019-05-17T00:12:58.472Z,490.22
2019-05-17T00:13:58.445Z,490.28
2019-05-17T00:14:58.430Z,491.29
2019-05-17T00:15:58.421Z,492.04
2019-05-17T00:16:58.404Z,489.94
2019-05-17T00:17:58.411Z,489.35
2019-05-17T00:18:58.385Z,490.44
2019-05-17T00:19:58.383Z,490.09
2019-05-17T00:20:58.354Z,491.66
2019-05-17T00:21:58.362Z,484.95
2019-05-17T00:22:58.352Z,483.63
2019-05-17T00:23:58.334Z,491.26
2019-05-17T00:24:58.311Z,489.24
2019-05-17T00:25:58.323Z,484.12
2019-05-17T00:26:58.671Z,491.10
2019-05-17T00:27:58.310Z,488.64
2019-05-17T00:28:58.270Z,489.67
2019-05-17T00:29:58.266Z,490.08
2019-05-17T00:30:58.244Z,490.15
2019-05-17T00:31:58.244Z,489.63
2019-05-17T00:32:58.262Z,489.85
2019-05-17T00:33:58.213Z,491.43
2019-05-17T00:34:58.203Z,490.28
2019-05-17T00:35:58.198Z,491.17
2019-05-17T00:36:58.189Z,491.23
2019-05-17T00:37:58.166Z,490.09
2019-05-17T00:38:58.183Z,488.92
2019-05-17T00:39:58.147Z,491.05
2019-05-17T00:40:58.141Z,491.14
2019-05-17T00:41:58.129Z,488.84
2019-05-17T00:42:58.126Z,490.12
2019-05-17T00:43:58.135Z,484.94
2019-05-17T00:44:58.086Z,488.05
2019-05-17T00:45:58.086Z,489.00
2019-05-17T00:46:58.834Z,488.07
2019-05-17T00:47:58.069Z,489.89
2019-05-17T00:48:58.078Z,488.17
2019-05-17T00:49:58.065Z,486.82
2019-05-17T00:51:02.137Z,487.21
2019-05-17T00:51:58.022Z,490.27
2019-05-17T00:52:58.006Z,488.74
2019-05-17T00:53:58.010Z,487.11
2019-05-17T00:54:57.986Z,489.50
2019-05-17T00:55:57.977Z,488.58
2019-05-17T00:56:57.954Z,509.78
2019-05-17T00:57:57.947Z,488.64
2019-05-17T00:58:57.981Z,489.52
2019-05-17T00:59:57.928Z,489.01
2019-05-17T01:00:57.918Z,488.73
2019-05-17T01:01:57.923Z,488.21
2019-05-17T01:02:57.899Z,485.50
2019-05-17T01:03:57.901Z,487.45
2019-05-17T01:04:57.873Z,509.14
2019-05-17T01:05:57.871Z,509.39
2019-05-17T01:06:57.844Z,510.72
2019-05-17T01:07:57.837Z,509.75
2019-05-17T01:09:03.486Z,509.17
2019-05-17T01:09:58.811Z,510.07
2019-05-17T01:10:57.809Z,511.03
2019-05-17T01:11:57.791Z,510.93
2019-05-17T01:12:57.775Z,508.44
2019-05-17T01:13:58.689Z,480.87
2019-05-17T01:14:58.310Z,487.67
2019-05-17T01:15:57.743Z,487.51
2019-05-17T01:16:57.737Z,487.01
2019-05-17T01:17:57.737Z,480.55
2019-05-17T01:18:57.739Z,485.02
2019-05-17T01:19:57.713Z,483.20
2019-05-17T01:20:57.713Z,485.31
2019-05-17T01:21:57.681Z,486.36
2019-05-17T01:22:57.682Z,483.97
2019-05-17T01:23:57.689Z,505.24
2019-05-17T01:24:57.652Z,483.71
2019-05-17T01:25:57.635Z,506.42
2019-05-17T01:26:57.622Z,508.71
2019-05-17T01:27:57.618Z,507.39
2019-05-17T01:28:57.621Z,508.07
2019-05-17T01:29:57.585Z,487.09
2019-05-17T01:30:57.593Z,485.36
2019-05-17T01:31:57.597Z,486.30
2019-05-17T01:32:57.558Z,485.91
2019-05-17T01:33:57.569Z,486.25
2019-05-17T01:34:57.557Z,505.41
2019-05-17T01:35:57.531Z,506.50
2019-05-17T01:36:57.517Z,506.18
2019-05-17T01:37:57.518Z,488.63
2019-05-17T01:38:57.768Z,508.05
2019-05-17T01:39:57.528Z,487.35
2019-05-17T01:40:57.470Z,508.39
2019-05-17T01:41:57.470Z,487.23
2019-05-17T01:42:58.202Z,487.40
2019-05-17T01:43:57.443Z,486.36
2019-05-17T01:44:57.441Z,486.57
2019-05-17T01:45:57.545Z,487.97
2019-05-17T01:46:57.404Z,487.81
2019-05-17T01:47:57.392Z,486.15
2019-05-17T01:48:57.833Z,487.06
2019-05-17T01:49:57.709Z,485.15
2019-05-17T01:50:57.365Z,487.08
2019-05-17T01:51:57.343Z,486.18
2019-05-17T01:52:57.338Z,489.65
2019-05-17T01:53:57.480Z,487.39
2019-05-17T01:54:57.332Z,486.29
2019-05-17T01:55:57.300Z,486.90
2019-05-17T01:56:57.300Z,487.95
2019-05-17T01:57:57.268Z,485.78
2019-05-17T01:58:57.572Z,487.91
2019-05-17T01:59:57.322Z,487.57
2019-05-17T02:00:57.509Z,477.17
2019-05-17T02:01:57.250Z,485.64
2019-05-17T02:02:57.734Z,487.20
2019-05-17T02:03:57.602Z,482.90
2019-05-17T02:04:57.227Z,500.05
2019-05-17T02:05:57.203Z,479.94
2019-05-17T02:06:57.470Z,505.58
2019-05-17T02:07:57.189Z,480.65
2019-05-17T02:08:57.148Z,481.54
2019-05-17T02:09:57.190Z,476.54
2019-05-17T02:10:57.490Z,483.87
2019-05-17T02:11:57.224Z,485.38
2019-05-17T02:12:57.160Z,488.57
2019-05-17T02:13:57.099Z,487.73
2019-05-17T02:14:57.622Z,490.08
2019-05-17T02:15:57.084Z,492.08
2019-05-17T02:16:57.403Z,490.04
2019-05-17T02:17:57.435Z,491.05
2019-05-17T02:18:57.425Z,481.53
2019-05-17T02:19:57.401Z,490.31
2019-05-17T02:20:57.193Z,483.92
2019-05-17T02:21:57.159Z,490.87
2019-05-17T02:22:57.014Z,490.58
2019-05-17T02:23:57.179Z,486.24
2019-05-17T02:24:56.998Z,489.12
2019-05-17T02:25:57.270Z,488.86
2019-05-17T02:26:57.139Z,482.18
2019-05-17T02:27:56.957Z,486.19
2019-05-17T02:28:56.949Z,486.84
2019-05-17T02:29:56.959Z,487.76
2019-05-17T02:30:56.929Z,488.86
2019-05-17T02:31:56.937Z,488.34
2019-05-17T02:32:56.892Z,489.05
2019-05-17T02:33:56.888Z,489.57
2019-05-17T02:34:56.917Z,488.40
2019-05-17T02:35:56.885Z,474.38
2019-05-17T02:36:56.845Z,479.49
2019-05-17T02:37:56.839Z,474.09
2019-05-17T02:38:56.834Z,478.15
2019-05-17T02:40:03.019Z,480.44
2019-05-17T02:40:57.836Z,484.07
2019-05-17T02:41:56.800Z,484.70
2019-05-17T02:42:56.803Z,484.77
2019-05-17T02:43:56.766Z,484.96
2019-05-17T02:44:56.771Z,484.94
2019-05-17T02:45:56.757Z,483.93
2019-05-17T02:46:56.727Z,484.78
2019-05-17T02:47:56.738Z,483.77
2019-05-17T02:48:56.740Z,484.14
2019-05-17T02:49:57.403Z,485.58
2019-05-17T02:50:56.721Z,486.21
2019-05-17T02:51:56.703Z,486.71
2019-05-17T02:52:56.669Z,487.05
2019-05-17T02:53:56.669Z,486.26
2019-05-17T02:54:56.652Z,484.62
2019-05-17T02:55:56.705Z,484.61
2019-05-17T02:56:56.620Z,486.24
2019-05-17T02:57:56.649Z,485.65
2019-05-17T02:58:56.610Z,482.84
2019-05-17T02:59:56.585Z,486.62
2019-05-17T03:00:56.614Z,485.21
2019-05-17T03:01:56.574Z,482.47
2019-05-17T03:02:56.571Z,485.98
2019-05-17T03:03:56.554Z,486.09
2019-05-17T03:04:56.539Z,484.60
2019-05-17T03:05:56.550Z,484.55
2019-05-17T03:06:56.525Z,486.45
2019-05-17T03:07:56.503Z,476.13
2019-05-17T03:08:56.499Z,473.77
2019-05-17T03:10:12.070Z,474.55
2019-05-17T03:10:57.491Z,473.80
2019-05-17T03:11:57.230Z,472.51
2019-05-17T03:12:56.462Z,477.42
2019-05-17T03:13:56.433Z,475.30
2019-05-17T03:14:56.442Z,473.12
2019-05-17T03:15:56.448Z,475.02
2019-05-17T03:16:56.411Z,475.26
2019-05-17T03:17:56.396Z,483.49
2019-05-17T03:18:56.386Z,481.24
2019-05-17T03:19:56.365Z,477.72
2019-05-17T03:20:56.382Z,477.65
2019-05-17T03:21:56.352Z,475.48
2019-05-17T03:22:56.348Z,476.62
2019-05-17T03:23:56.344Z,476.93
2019-05-17T03:24:56.315Z,483.33
2019-05-17T03:25:56.319Z,484.30
2019-05-17T03:26:56.293Z,486.96
2019-05-17T03:27:56.302Z,483.70
2019-05-17T03:28:56.280Z,486.33
2019-05-17T03:29:56.269Z,484.63
2019-05-17T03:30:57.140Z,484.16
2019-05-17T03:32:00.151Z,487.85
2019-05-17T03:32:57.077Z,484.92
2019-05-17T03:33:56.379Z,478.91
2019-05-17T03:34:56.814Z,485.61
2019-05-17T03:35:57.130Z,486.34
2019-05-17T03:36:57.001Z,487.31
2019-05-17T03:37:56.190Z,487.73
2019-05-17T03:38:56.166Z,486.08
2019-05-17T03:39:56.155Z,485.95
2019-05-17T03:41:11.954Z,485.46
2019-05-17T03:41:57.142Z,484.50
2019-05-17T03:42:56.140Z,482.88
2019-05-17T03:43:56.111Z,486.88
2019-05-17T03:44:56.099Z,484.53
2019-05-17T03:45:56.120Z,478.66
2019-05-17T03:46:56.097Z,485.05
2019-05-17T03:47:56.065Z,476.66
2019-05-17T03:48:56.059Z,484.65
2019-05-17T03:49:56.044Z,483.59
2019-05-17T03:50:56.030Z,484.69
2019-05-17T03:51:56.029Z,483.76
2019-05-17T03:52:56.017Z,485.40
2019-05-17T03:53:56.000Z,486.96
2019-05-17T03:54:55.983Z,485.04
2019-05-17T03:55:55.971Z,485.99
2019-05-17T03:56:55.983Z,484.06
2019-05-17T03:57:55.944Z,482.32
2019-05-17T03:58:55.942Z,482.88
2019-05-17T03:59:55.937Z,483.71
2019-05-17T04:00:55.943Z,482.67
2019-05-17T04:01:55.923Z,480.93
2019-05-17T04:02:55.909Z,483.67
2019-05-17T04:03:55.879Z,484.51
2019-05-17T04:04:55.869Z,482.04
2019-05-17T04:05:55.880Z,483.84
2019-05-17T04:06:55.864Z,484.20
2019-05-17T04:07:55.856Z,483.89
2019-05-17T04:08:55.825Z,481.93
2019-05-17T04:09:55.815Z,481.89
2019-05-17T04:10:55.829Z,481.92
2019-05-17T04:11:55.811Z,480.51
2019-05-17T04:12:55.779Z,478.66
2019-05-17T04:13:55.764Z,483.78
2019-05-17T04:14:55.773Z,481.20
2019-05-17T04:15:55.815Z,481.15
2019-05-17T04:16:55.778Z,482.42
2019-05-17T04:17:55.730Z,480.96
2019-05-17T04:18:55.717Z,481.63
2019-05-17T04:19:55.718Z,480.22
2019-05-17T04:20:55.720Z,485.52
2019-05-17T04:21:55.712Z,483.38
2019-05-17T04:22:55.670Z,482.35
2019-05-17T04:23:55.658Z,480.24
2019-05-17T04:24:55.653Z,481.24
2019-05-17T04:25:55.633Z,481.69
2019-05-17T04:26:55.648Z,477.77
2019-05-17T04:27:55.614Z,480.27
2019-05-17T04:28:55.621Z,478.12
2019-05-17T04:29:55.585Z,478.47
2019-05-17T04:30:55.591Z,482.08
2019-05-17T04:31:55.592Z,483.10
2019-05-17T04:32:55.561Z,476.07
2019-05-17T04:33:55.547Z,480.80
2019-05-17T04:34:55.552Z,471.53
2019-05-17T04:35:55.549Z,481.33
2019-05-17T04:36:55.518Z,477.09
2019-05-17T04:37:55.547Z,481.23
2019-05-17T04:38:55.521Z,481.64
2019-05-17T04:39:55.480Z,473.68
2019-05-17T04:40:55.477Z,478.46
2019-05-17T04:41:55.471Z,480.13
2019-05-17T04:42:55.498Z,479.04
2019-05-17T04:43:55.441Z,481.62
2019-05-17T04:44:55.416Z,478.45
2019-05-17T04:45:55.427Z,475.45
2019-05-17T04:46:55.400Z,481.15
2019-05-17T04:47:55.446Z,475.76
2019-05-17T04:48:55.393Z,480.06
2019-05-17T04:49:55.358Z,482.06
2019-05-17T04:50:55.360Z,481.10
2019-05-17T04:51:55.344Z,481.79
2019-05-17T04:52:55.355Z,480.29
2019-05-17T04:53:55.331Z,471.28
2019-05-17T04:54:55.365Z,473.00
2019-05-17T04:55:55.322Z,474.72
2019-05-17T04:56:55.295Z,474.42
2019-05-17T04:57:55.305Z,476.64
2019-05-17T04:58:55.273Z,471.60
2019-05-17T04:59:55.277Z,472.25
2019-05-17T05:00:55.264Z,452.94
2019-05-17T05:01:55.242Z,465.69
2019-05-17T05:02:55.258Z,466.12
2019-05-17T05:03:55.266Z,466.37
2019-05-17T05:04:55.198Z,467.35
2019-05-17T05:05:55.201Z,468.61
2019-05-17T05:06:55.224Z,470.70
2019-05-17T05:07:55.273Z,472.17
2019-05-17T05:08:55.159Z,477.85
2019-05-17T05:09:55.149Z,478.94
2019-05-17T05:10:55.176Z,480.48
2019-05-17T05:12:01.099Z,478.53
2019-05-17T05:12:56.140Z,479.12
2019-05-17T05:13:55.107Z,480.68
2019-05-17T05:14:55.090Z,478.68
2019-05-17T05:15:55.068Z,479.58
2019-05-17T05:16:55.071Z,480.38
2019-05-17T05:17:55.099Z,478.44
2019-05-17T05:18:55.047Z,482.00
2019-05-17T05:19:55.070Z,467.95
2019-05-17T05:20:55.019Z,471.12
2019-05-17T05:21:55.019Z,468.10
2019-05-17T05:22:55.058Z,469.26
2019-05-17T05:23:54.984Z,472.89
2019-05-17T05:24:54.976Z,477.69
2019-05-17T05:25:54.982Z,467.81
2019-05-17T05:26:54.977Z,475.28
2019-05-17T05:27:54.981Z,478.75
2019-05-17T05:28:54.932Z,477.50
2019-05-17T05:29:54.928Z,474.52
2019-05-17T05:30:54.911Z,475.00
2019-05-17T05:31:54.931Z,470.43
2019-05-17T05:32:54.889Z,478.12
2019-05-17T05:33:54.899Z,478.48
2019-05-17T05:34:54.865Z,472.58
2019-05-17T05:35:54.852Z,469.65
2019-05-17T05:36:54.847Z,469.86
2019-05-17T05:37:54.859Z,469.70
2019-05-17T05:38:54.859Z,475.40
2019-05-17T05:39:54.822Z,470.68
2019-05-17T05:40:54.796Z,472.65
2019-05-17T05:42:06.316Z,470.09
2019-05-17T05:42:55.775Z,468.62
2019-05-17T05:43:54.790Z,465.88
2019-05-17T05:44:55.552Z,464.62
2019-05-17T05:45:54.773Z,470.87
2019-05-17T05:46:54.744Z,464.17
2019-05-17T05:47:54.726Z,470.63
2019-05-17T05:48:54.734Z,463.76
2019-05-17T05:49:54.701Z,463.87
2019-05-17T05:50:54.690Z,469.11
2019-05-17T05:51:54.703Z,467.91
2019-05-17T05:52:54.677Z,469.95
2019-05-17T05:53:54.676Z,472.20
2019-05-17T05:54:54.646Z,465.48
2019-05-17T05:55:54.645Z,472.19
2019-05-17T05:56:54.635Z,463.97
2019-05-17T05:57:54.616Z,471.55
2019-05-17T05:58:54.631Z,474.98
2019-05-17T05:59:54.610Z,476.18
2019-05-17T06:00:54.577Z,474.75
2019-05-17T06:01:54.576Z,476.23
2019-05-17T06:02:54.561Z,469.36
2019-05-17T06:03:54.599Z,474.95
2019-05-17T06:04:54.524Z,474.98
2019-05-17T06:05:54.545Z,475.65
2019-05-17T06:06:54.513Z,474.17
2019-05-17T06:07:54.506Z,473.38
2019-05-17T06:08:54.525Z,474.38
2019-05-17T06:09:54.478Z,476.42
2019-05-17T06:10:54.471Z,477.32
2019-05-17T06:11:54.449Z,476.41
2019-05-17T06:12:54.453Z,475.68
2019-05-17T06:13:54.464Z,479.62
2019-05-17T06:14:54.432Z,478.41
2019-05-17T06:15:54.413Z,475.52
2019-05-17T06:16:54.409Z,478.44
2019-05-17T06:17:54.384Z,479.37
2019-05-17T06:18:54.381Z,478.47
2019-05-17T06:19:54.395Z,478.09
2019-05-17T06:20:54.357Z,474.39
2019-05-17T06:21:54.354Z,477.21
2019-05-17T06:22:54.336Z,479.86
2019-05-17T06:23:54.322Z,481.77
2019-05-17T06:24:54.325Z,481.35
2019-05-17T06:25:54.290Z,477.09
2019-05-17T06:26:54.295Z,481.82
2019-05-17T06:27:54.279Z,482.16
2019-05-17T06:28:54.272Z,478.83
2019-05-17T06:29:54.275Z,483.05
2019-05-17T06:30:54.254Z,477.47
2019-05-17T06:31:54.233Z,480.17
2019-05-17T06:32:54.227Z,476.28
2019-05-17T06:33:54.212Z,476.44
2019-05-17T06:34:54.233Z,476.48
2019-05-17T06:35:54.183Z,477.08
2019-05-17T06:36:54.190Z,475.99
2019-05-17T06:37:54.161Z,478.44
2019-05-17T06:38:54.205Z,478.14
2019-05-17T06:39:54.181Z,477.81
2019-05-17T06:40:54.140Z,478.05
2019-05-17T06:41:54.131Z,483.29
2019-05-17T06:42:54.118Z,480.50
2019-05-17T06:43:54.131Z,474.33
2019-05-17T06:44:54.154Z,475.23
2019-05-17T06:45:54.074Z,480.73
2019-05-17T06:46:54.106Z,479.07
2019-05-17T06:47:54.064Z,480.77
2019-05-17T06:48:54.038Z,480.63
2019-05-17T06:49:54.062Z,482.90
2019-05-17T06:50:54.018Z,481.27
2019-05-17T06:51:54.018Z,479.35
2019-05-17T06:52:54.000Z,480.83
2019-05-17T06:53:53.983Z,479.52
2019-05-17T06:54:54.003Z,466.76
2019-05-17T06:55:53.971Z,468.76
2019-05-17T06:56:53.956Z,473.25
2019-05-17T06:57:53.949Z,469.76
2019-05-17T06:58:53.930Z,474.94
2019-05-17T06:59:53.953Z,475.29
2019-05-17T07:00:53.917Z,478.47
2019-05-17T07:01:53.903Z,482.47
2019-05-17T07:02:53.889Z,483.90
2019-05-17T07:03:53.874Z,486.14
2019-05-17T07:04:53.900Z,487.74
2019-05-17T07:05:53.861Z,486.44
2019-05-17T07:06:53.871Z,486.43
2019-05-17T07:07:53.845Z,482.69
2019-05-17T07:08:53.835Z,488.06
2019-05-17T07:09:53.813Z,488.71
2019-05-17T07:10:53.862Z,489.10
2019-05-17T07:11:53.815Z,487.98
2019-05-17T07:12:58.556Z,489.92
2019-05-17T07:13:54.763Z,487.32
2019-05-17T07:14:53.762Z,487.72
2019-05-17T07:15:53.782Z,487.26
2019-05-17T07:16:53.741Z,488.62
2019-05-17T07:17:53.740Z,490.18
2019-05-17T07:18:53.712Z,488.65
2019-05-17T07:19:53.713Z,484.89
2019-05-17T07:20:53.714Z,480.41
2019-05-17T07:21:53.703Z,481.00
2019-05-17T07:22:53.692Z,487.49
2019-05-17T07:23:53.650Z,485.01
2019-05-17T07:24:53.674Z,484.31
2019-05-17T07:25:53.655Z,483.27
2019-05-17T07:26:53.614Z,484.69
2019-05-17T07:27:53.610Z,486.76
2019-05-17T07:28:53.618Z,485.08
2019-05-17T07:29:53.596Z,483.65
2019-05-17T07:30:53.602Z,488.48
2019-05-17T07:31:53.577Z,489.20
2019-05-17T07:32:53.573Z,485.94
2019-05-17T07:33:53.558Z,484.09
2019-05-17T07:34:53.549Z,488.60
2019-05-17T07:35:53.547Z,485.94
2019-05-17T07:36:53.521Z,484.58
2019-05-17T07:37:53.551Z,484.46
2019-05-17T07:38:53.484Z,487.12
2019-05-17T07:40:01.299Z,487.75
2019-05-17T07:40:54.493Z,481.01
2019-05-17T07:41:53.461Z,484.01
2019-05-17T07:43:05.735Z,488.34
2019-05-17T07:43:54.438Z,490.16
2019-05-17T07:44:53.418Z,488.75
2019-05-17T07:45:53.433Z,492.00
2019-05-17T07:46:53.394Z,477.22
2019-05-17T07:47:53.393Z,487.71
2019-05-17T07:48:53.378Z,490.87
2019-05-17T07:49:54.644Z,489.68
2019-05-17T07:50:53.420Z,490.47
2019-05-17T07:51:53.336Z,494.25
2019-05-17T07:52:53.336Z,489.34
2019-05-17T07:53:53.338Z,492.56
2019-05-17T07:54:53.318Z,488.93
2019-05-17T07:55:53.338Z,485.60
2019-05-17T07:56:53.301Z,491.61
2019-05-17T07:57:53.283Z,490.22
2019-05-17T07:58:53.268Z,488.44
2019-05-17T07:59:53.277Z,488.90
2019-05-17T08:00:53.272Z,488.31
2019-05-17T08:01:53.236Z,489.89
2019-05-17T08:02:53.237Z,489.94
2019-05-17T08:03:53.207Z,496.89
2019-05-17T08:04:53.236Z,500.00
2019-05-17T08:05:53.223Z,499.95
2019-05-17T08:06:53.173Z,497.00
2019-05-17T08:07:53.160Z,497.69
2019-05-17T08:08:53.175Z,498.28
2019-05-17T08:09:53.155Z,498.25
2019-05-17T08:10:53.157Z,497.41
2019-05-17T08:11:53.129Z,501.03
2019-05-17T08:12:53.104Z,500.63
2019-05-17T08:13:53.114Z,499.58
2019-05-17T08:14:53.088Z,499.64
2019-05-17T08:15:53.086Z,500.94
2019-05-17T08:16:53.065Z,493.51
2019-05-17T08:17:53.062Z,496.43
2019-05-17T08:18:53.048Z,493.71
2019-05-17T08:19:53.051Z,491.34
2019-05-17T08:20:53.099Z,487.61
2019-05-17T08:21:53.057Z,490.84
2019-05-17T08:22:53.040Z,497.61
2019-05-17T08:23:53.023Z,486.81
2019-05-17T08:24:53.027Z,494.20
2019-05-17T08:25:56.217Z,496.44
2019-05-17T08:26:53.007Z,495.16
2019-05-17T08:27:52.986Z,495.40
2019-05-17T08:28:53.010Z,491.20
2019-05-17T08:29:52.956Z,498.18
2019-05-17T08:30:52.994Z,499.53
2019-05-17T08:31:52.955Z,502.12
2019-05-17T08:32:52.915Z,499.33
2019-05-17T08:33:52.907Z,499.83
2019-05-17T08:34:52.926Z,497.89
2019-05-17T08:35:52.950Z,501.97
2019-05-17T08:36:52.996Z,500.55
2019-05-17T08:37:52.976Z,500.35
2019-05-17T08:38:52.924Z,496.72
2019-05-17T08:39:52.899Z,496.03
2019-05-17T08:40:52.904Z,492.79
2019-05-17T08:41:52.911Z,492.74
2019-05-17T08:42:52.776Z,493.62
2019-05-17T08:43:52.910Z,492.77
2019-05-17T08:44:52.754Z,495.11
2019-05-17T08:45:52.789Z,498.25
2019-05-17T08:46:52.776Z,502.62
2019-05-17T08:47:52.747Z,503.12
2019-05-17T08:48:52.844Z,497.56
2019-05-17T08:49:52.703Z,500.34
2019-05-17T08:50:52.692Z,501.71
2019-05-17T08:51:52.713Z,498.09
2019-05-17T08:52:52.678Z,492.06
2019-05-17T08:53:52.661Z,493.28
2019-05-17T08:54:52.662Z,499.09
2019-05-17T08:55:52.644Z,501.93
2019-05-17T08:56:52.662Z,496.32
2019-05-17T08:57:52.616Z,495.67
2019-05-17T08:58:52.599Z,492.47
2019-05-17T08:59:52.611Z,495.81
2019-05-17T09:00:52.579Z,489.43
2019-05-17T09:01:52.605Z,496.53
2019-05-17T09:02:52.549Z,502.92
2019-05-17T09:03:52.544Z,501.21
2019-05-17T09:04:52.536Z,493.08
2019-05-17T09:05:53.016Z,495.04
2019-05-17T09:06:52.569Z,495.77
2019-05-17T09:07:52.508Z,494.73
2019-05-17T09:08:52.484Z,497.62
2019-05-17T09:09:52.478Z,497.66
2019-05-17T09:10:52.468Z,499.28
2019-05-17T09:11:52.489Z,491.58
2019-05-17T09:12:52.440Z,491.71
2019-05-17T09:13:58.068Z,487.21
2019-05-17T09:14:53.418Z,499.46
2019-05-17T09:15:52.417Z,496.50
2019-05-17T09:16:52.417Z,494.16
2019-05-17T09:17:52.389Z,495.73
2019-05-17T09:18:52.384Z,495.14
2019-05-17T09:19:54.322Z,499.83
2019-05-17T09:20:52.369Z,500.02
2019-05-17T09:21:52.394Z,502.25
2019-05-17T09:22:52.339Z,496.79
2019-05-17T09:23:52.315Z,499.82
2019-05-17T09:24:52.309Z,498.99
2019-05-17T09:25:52.298Z,500.05
2019-05-17T09:26:52.319Z,497.29
2019-05-17T09:27:52.281Z,497.12
2019-05-17T09:28:52.257Z,495.25
2019-05-17T09:29:52.300Z,498.61
2019-05-17T09:30:52.245Z,495.83
2019-05-17T09:31:52.262Z,497.62
2019-05-17T09:32:52.244Z,503.94
2019-05-17T09:33:52.203Z,495.47
2019-05-17T09:34:52.185Z,498.37
2019-05-17T09:35:52.192Z,503.48
2019-05-17T09:36:52.178Z,501.93
2019-05-17T09:37:52.176Z,503.43
2019-05-17T09:38:52.157Z,500.67
2019-05-17T09:39:52.153Z,501.33
2019-05-17T09:40:52.131Z,499.55
2019-05-17T09:41:52.123Z,498.96
2019-05-17T09:42:52.130Z,497.74
2019-05-17T09:43:52.090Z,499.53
2019-05-17T09:44:52.111Z,498.94
2019-05-17T09:45:52.066Z,501.14
2019-05-17T09:46:52.052Z,500.99
2019-05-17T09:47:52.076Z,495.51
2019-05-17T09:48:52.045Z,501.02
2019-05-17T09:49:52.031Z,522.13
2019-05-17T09:50:52.029Z,500.70
2019-05-17T09:51:52.003Z,498.87
2019-05-17T09:52:52.027Z,496.08
2019-05-17T09:53:51.974Z,526.16
2019-05-17T09:54:51.982Z,498.47
2019-05-17T09:55:51.959Z,502.31
2019-05-17T09:56:51.958Z,498.86
2019-05-17T09:57:51.963Z,496.49
2019-05-17T09:58:51.931Z,494.85
2019-05-17T09:59:51.932Z,493.13
2019-05-17T10:00:51.933Z,496.16
2019-05-17T10:01:51.892Z,520.32
2019-05-17T10:02:51.909Z,499.16
2019-05-17T10:03:51.870Z,519.48
2019-05-17T10:04:51.882Z,498.20
2019-05-17T10:05:51.853Z,515.46
2019-05-17T10:06:51.839Z,497.05
2019-05-17T10:07:51.865Z,521.60
2019-05-17T10:08:51.821Z,501.25
2019-05-17T10:09:51.809Z,522.44
2019-05-17T10:11:04.743Z,502.51
2019-05-17T10:11:52.792Z,502.18
2019-05-17T10:12:51.801Z,501.88
2019-05-17T10:13:51.766Z,502.29
2019-05-17T10:14:51.776Z,501.07
2019-05-17T10:15:51.822Z,494.94
2019-05-17T10:16:51.778Z,502.40
2019-05-17T10:17:51.751Z,502.02
2019-05-17T10:18:51.714Z,498.00
2019-05-17T10:19:51.705Z,496.96
2019-05-17T10:20:51.685Z,500.98
2019-05-17T10:21:51.674Z,500.70
2019-05-17T10:22:51.706Z,499.46
2019-05-17T10:23:51.651Z,500.45
2019-05-17T10:24:51.647Z,495.57
2019-05-17T10:25:51.631Z,497.17
2019-05-17T10:26:51.622Z,488.90
2019-05-17T10:27:51.631Z,484.74
2019-05-17T10:28:51.796Z,490.29
2019-05-17T10:29:51.594Z,494.07
2019-05-17T10:30:52.167Z,489.79
2019-05-17T10:31:51.564Z,491.42
2019-05-17T10:32:51.601Z,496.50
2019-05-17T10:33:51.539Z,498.10
2019-05-17T10:34:51.539Z,495.97
2019-05-17T10:35:51.520Z,495.67
2019-05-17T10:36:51.524Z,498.23
2019-05-17T10:37:51.493Z,498.56
2019-05-17T10:38:51.559Z,498.25
2019-05-17T10:39:51.484Z,495.60
2019-05-17T10:40:51.461Z,492.84
2019-05-17T10:41:51.455Z,493.26
2019-05-17T10:42:51.442Z,504.32
2019-05-17T10:43:51.507Z,501.41
2019-05-17T10:44:54.500Z,507.02
2019-05-17T10:45:51.440Z,500.52
2019-05-17T10:46:51.394Z,496.53
2019-05-17T10:47:51.408Z,500.55
2019-05-17T10:48:51.409Z,502.72
2019-05-17T10:49:51.367Z,505.02
2019-05-17T10:50:51.361Z,502.03
2019-05-17T10:51:51.348Z,500.95
2019-05-17T10:52:51.334Z,505.75
2019-05-17T10:53:51.499Z,503.86
2019-05-17T10:54:51.315Z,503.50
2019-05-17T10:55:51.291Z,500.23
2019-05-17T10:56:51.300Z,500.24
2019-05-17T10:57:51.275Z,500.35
2019-05-17T10:58:51.294Z,500.17
2019-05-17T10:59:51.266Z,498.05
2019-05-17T11:00:51.242Z,501.47
2019-05-17T11:01:51.248Z,496.93
2019-05-17T11:02:51.238Z,491.19
2019-05-17T11:03:51.248Z,501.19
2019-05-17T11:04:51.199Z,500.14
2019-05-17T11:05:51.200Z,501.80
2019-05-17T11:06:51.186Z,503.44
2019-05-17T11:07:51.169Z,498.90
2019-05-17T11:08:51.181Z,501.74
2019-05-17T11:09:51.226Z,499.40
2019-05-17T11:10:51.132Z,501.82
2019-05-17T11:11:51.136Z,500.48
2019-05-17T11:12:51.099Z,500.50
2019-05-17T11:13:52.984Z,504.65
2019-05-17T11:15:09.429Z,505.66
2019-05-17T11:15:52.070Z,503.06
2019-05-17T11:16:51.067Z,504.16
2019-05-17T11:17:51.079Z,502.97
2019-05-17T11:18:51.076Z,501.56
2019-05-17T11:19:51.035Z,499.91
2019-05-17T11:20:51.054Z,499.66
2019-05-17T11:21:51.004Z,501.39
2019-05-17T11:22:51.012Z,504.11
2019-05-17T11:23:50.999Z,503.04
2019-05-17T11:24:50.978Z,503.56
2019-05-17T11:25:50.966Z,503.48
2019-05-17T11:26:50.961Z,501.62
2019-05-17T11:27:50.942Z,499.39
2019-05-17T11:28:50.945Z,525.06
2019-05-17T11:29:50.922Z,502.33
2019-05-17T11:30:50.910Z,522.70
2019-05-17T11:31:50.900Z,500.29
2019-05-17T11:32:50.893Z,521.03
2019-05-17T11:33:50.931Z,498.86
2019-05-17T11:34:50.867Z,499.37
2019-05-17T11:35:50.865Z,498.05
2019-05-17T11:36:50.842Z,521.66
2019-05-17T11:37:50.842Z,503.94
2019-05-17T11:38:50.856Z,522.72
2019-05-17T11:39:50.804Z,499.61
2019-05-17T11:40:50.798Z,520.61
2019-05-17T11:41:50.784Z,499.87
2019-05-17T11:42:50.772Z,522.08
2019-05-17T11:43:50.799Z,504.52
2019-05-17T11:44:50.765Z,524.50
2019-05-17T11:45:50.736Z,523.17
2019-05-17T11:46:50.745Z,523.06
2019-05-17T11:47:50.715Z,523.15
2019-05-17T11:48:50.748Z,523.86
2019-05-17T11:49:50.704Z,522.95
2019-05-17T11:50:50.681Z,520.72
2019-05-17T11:51:50.681Z,499.40
2019-05-17T11:52:50.675Z,523.17
2019-05-17T11:53:50.687Z,525.71
2019-05-17T11:54:50.641Z,522.82
2019-05-17T11:55:50.630Z,499.06
2019-05-17T11:56:50.646Z,523.99
2019-05-17T11:57:50.605Z,494.49
2019-05-17T11:58:50.625Z,515.68
2019-05-17T11:59:50.615Z,491.34
2019-05-17T12:00:50.564Z,512.21
2019-05-17T12:01:50.563Z,489.49
2019-05-17T12:02:50.554Z,511.98
2019-05-17T12:03:50.592Z,494.44
2019-05-17T12:04:50.536Z,517.34
2019-05-17T12:05:50.517Z,500.24
2019-05-17T12:06:50.503Z,528.30
2019-05-17T12:07:50.504Z,502.96
2019-05-17T12:08:50.490Z,524.03
2019-05-17T12:09:50.499Z,499.95
2019-05-17T12:10:50.595Z,512.87
2019-05-17T12:11:50.453Z,493.15
2019-05-17T12:12:50.443Z,518.43
2019-05-17T12:13:50.439Z,498.16
2019-05-17T12:14:50.435Z,522.59
2019-05-17T12:15:50.419Z,526.58
2019-05-17T12:16:50.409Z,520.73
2019-05-17T12:17:50.392Z,515.72
2019-05-17T12:18:50.383Z,521.95
2019-05-17T12:19:50.388Z,524.87
2019-05-17T12:20:50.354Z,522.49
2019-05-17T12:21:50.339Z,522.72
2019-05-17T12:22:50.331Z,522.10
2019-05-17T12:23:50.329Z,500.03
2019-05-17T12:24:50.322Z,524.38
2019-05-17T12:25:50.301Z,500.70
2019-05-17T12:26:50.318Z,520.38
2019-05-17T12:27:50.272Z,502.11
2019-05-17T12:28:50.270Z,522.33